createdAt,value
2022-12-24T00:01:38.318Z,8.55
2022-12-24T00:04:05.307Z,7.13
2022-12-24T00:06:32.167Z,8.00
2022-12-24T00:08:59.048Z,6.80
2022-12-24T00:11:25.838Z,7.15
2022-12-24T00:13:52.747Z,6.25
2022-12-24T00:16:19.638Z,6.95
2022-12-24T00:18:47.171Z,7.18
2022-12-24T00:21:15.171Z,9.05
2022-12-24T00:23:42.195Z,8.05
2022-12-24T00:26:09.062Z,6.13
2022-12-24T00:28:35.896Z,6.13
2022-12-24T00:31:11.419Z,5.88
2022-12-24T00:33:38.491Z,6.15
2022-12-24T00:36:06.419Z,6.80
2022-12-24T00:38:33.300Z,6.13
2022-12-24T00:41:04.659Z,7.05
2022-12-24T00:43:32.319Z,5.63
2022-12-24T00:46:00.146Z,6.40
2022-12-24T00:48:27.082Z,6.70
2022-12-24T00:50:54.118Z,6.68
2022-12-24T00:53:21.195Z,6.45
2022-12-24T00:55:48.178Z,8.85
2022-12-24T00:58:15.221Z,5.43
2022-12-24T01:00:42.168Z,5.70
2022-12-24T01:03:09.401Z,7.25
2022-12-24T01:05:36.403Z,6.65
2022-12-24T01:08:03.395Z,5.47
2022-12-24T01:10:30.293Z,5.88
2022-12-24T01:12:57.348Z,6.82
2022-12-24T01:15:24.297Z,5.95
2022-12-24T01:17:51.244Z,6.60
2022-12-24T01:20:18.618Z,5.72
2022-12-24T01:22:46.163Z,6.72
2022-12-24T01:25:13.299Z,5.68
2022-12-24T01:27:40.447Z,7.78
2022-12-24T01:30:09.286Z,6.32
2022-12-24T01:32:36.265Z,5.40
2022-12-24T01:35:03.365Z,6.47
2022-12-24T01:37:30.322Z,5.63
2022-12-24T01:40:17.194Z,5.47
2022-12-24T01:43:08.546Z,5.43
2022-12-24T01:46:01.463Z,5.53
2022-12-24T01:48:47.960Z,4.50
2022-12-24T01:51:19.723Z,6.25
2022-12-24T01:53:49.839Z,4.78
2022-12-24T01:56:17.109Z,6.15
2022-12-24T01:58:47.927Z,5.53
2022-12-24T02:01:14.950Z,6.15
2022-12-24T02:03:42.095Z,6.18
2022-12-24T02:06:09.620Z,5.60
2022-12-24T02:08:42.596Z,4.07
2022-12-24T02:11:23.377Z,4.82
2022-12-24T02:13:56.095Z,5.10
2022-12-24T02:16:44.719Z,5.50
2022-12-24T02:19:48.986Z,6.93
2022-12-24T02:22:31.015Z,5.75
2022-12-24T02:25:34.842Z,5.53
2022-12-24T02:28:33.796Z,6.22
2022-12-24T02:31:21.172Z,4.75
2022-12-24T02:34:00.756Z,5.90
2022-12-24T02:36:35.357Z,3.97
2022-12-24T02:39:05.841Z,5.72
2022-12-24T02:41:54.480Z,3.80
2022-12-24T02:44:24.046Z,5.50
2022-12-24T02:46:51.338Z,4.82
2022-12-24T02:49:18.323Z,4.97
2022-12-24T02:51:45.203Z,5.32
2022-12-24T02:54:12.756Z,4.57
2022-12-24T02:56:45.229Z,4.28
2022-12-24T02:59:33.069Z,5.43
2022-12-24T03:02:26.337Z,4.82
2022-12-24T03:05:18.247Z,4.13
2022-12-24T03:07:46.887Z,5.25
2022-12-24T03:10:19.105Z,4.03
2022-12-24T03:12:53.275Z,4.43
2022-12-24T03:15:22.309Z,6.13
2022-12-24T03:17:50.768Z,5.40
2022-12-24T03:20:22.586Z,4.05
2022-12-24T03:22:50.726Z,4.60
2022-12-24T03:25:17.961Z,4.60
2022-12-24T03:27:45.158Z,5.13
2022-12-24T03:30:14.583Z,5.55
2022-12-24T03:32:41.854Z,5.90
2022-12-24T03:35:09.430Z,4.45
2022-12-24T03:37:36.429Z,4.25
2022-12-24T03:40:04.876Z,6.30
2022-12-24T03:42:31.781Z,4.10
2022-12-24T03:44:58.664Z,4.03
2022-12-24T03:47:25.580Z,4.93
2022-12-24T03:49:52.867Z,4.65
2022-12-24T03:52:19.739Z,5.07
2022-12-24T03:54:46.568Z,5.00
2022-12-24T03:57:13.418Z,4.13
2022-12-24T03:59:40.330Z,6.13
2022-12-24T04:02:07.334Z,6.05
2022-12-24T04:04:36.832Z,5.82
2022-12-24T04:07:04.745Z,5.72
2022-12-24T04:09:31.555Z,5.35
2022-12-24T04:11:58.372Z,4.45
2022-12-24T04:14:25.333Z,5.35
2022-12-24T04:16:52.263Z,5.10
2022-12-24T04:19:19.094Z,5.43
2022-12-24T04:21:45.949Z,5.07
2022-12-24T04:24:12.820Z,4.70
2022-12-24T04:26:39.646Z,5.45
2022-12-24T04:29:06.463Z,4.65
2022-12-24T04:31:33.371Z,5.80
2022-12-24T04:34:00.242Z,6.28
2022-12-24T04:36:27.042Z,5.07
2022-12-24T04:38:53.926Z,5.78
2022-12-24T04:41:24.267Z,5.30
2022-12-24T04:43:52.862Z,5.88
2022-12-24T04:46:22.419Z,5.13
2022-12-24T04:48:51.594Z,4.70
2022-12-24T04:51:19.075Z,5.57
2022-12-24T04:53:46.289Z,7.25
2022-12-24T04:56:29.224Z,4.95
2022-12-24T04:58:56.458Z,5.18
2022-12-24T05:01:31.978Z,6.30
2022-12-24T05:03:59.391Z,5.10
2022-12-24T05:06:30.225Z,5.30
2022-12-24T05:08:58.116Z,4.95
2022-12-24T05:11:25.201Z,5.63
2022-12-24T05:13:52.357Z,4.85
2022-12-24T05:16:20.697Z,5.18
2022-12-24T05:18:47.638Z,5.90
2022-12-24T05:21:16.987Z,4.63
2022-12-24T05:24:02.393Z,6.22
2022-12-24T05:26:39.989Z,6.50
2022-12-24T05:29:08.028Z,5.20
2022-12-24T05:31:36.219Z,5.53
2022-12-24T05:34:03.394Z,5.32
2022-12-24T05:36:30.440Z,5.15
2022-12-24T05:38:57.466Z,8.15
2022-12-24T05:41:24.373Z,3.85
2022-12-24T05:43:51.648Z,7.63
2022-12-24T05:46:20.341Z,5.78
2022-12-24T05:48:48.167Z,5.57
2022-12-24T05:51:19.800Z,5.50
2022-12-24T05:53:47.831Z,6.70
2022-12-24T05:56:20.411Z,5.18
2022-12-24T05:58:47.375Z,5.55
2022-12-24T06:01:15.139Z,5.75
2022-12-24T06:03:42.421Z,4.18
2022-12-24T06:06:21.153Z,5.63
2022-12-24T06:08:49.090Z,5.83
2022-12-24T06:11:18.387Z,4.95
2022-12-24T06:13:45.347Z,6.03
2022-12-24T06:16:15.408Z,6.78
2022-12-24T06:18:42.745Z,4.35
2022-12-24T06:21:10.281Z,5.20
2022-12-24T06:23:38.930Z,3.97
2022-12-24T06:26:06.856Z,6.85
2022-12-24T06:28:36.353Z,5.47
2022-12-24T06:31:04.788Z,5.93
2022-12-24T06:33:35.202Z,4.25
2022-12-24T06:36:02.560Z,4.32
2022-12-24T06:38:32.464Z,3.90
2022-12-24T06:40:59.876Z,3.97
2022-12-24T06:43:26.784Z,4.22
2022-12-24T06:45:53.787Z,3.72
2022-12-24T06:48:20.756Z,4.43
2022-12-24T06:50:47.663Z,4.40
2022-12-24T06:53:14.693Z,4.30
2022-12-24T06:55:41.612Z,3.92
2022-12-24T06:58:08.492Z,5.63
2022-12-24T07:00:35.391Z,5.07
2022-12-24T07:03:02.345Z,5.43
2022-12-24T07:05:29.451Z,5.40
2022-12-24T07:07:56.913Z,4.85
2022-12-24T07:10:24.046Z,5.00
2022-12-24T07:12:51.108Z,4.07
2022-12-24T07:15:18.159Z,5.38
2022-12-24T07:17:45.227Z,4.55
2022-12-24T07:20:14.965Z,5.57
2022-12-24T07:22:42.376Z,6.07
2022-12-24T07:25:10.120Z,5.57
2022-12-24T07:27:37.449Z,4.45
2022-12-24T07:30:05.254Z,4.88
2022-12-24T07:32:32.110Z,5.25
2022-12-24T07:34:59.116Z,3.85
2022-12-24T07:37:26.024Z,4.63
2022-12-24T07:39:52.964Z,5.53
2022-12-24T07:42:19.825Z,5.25
2022-12-24T07:44:46.787Z,3.60
2022-12-24T07:47:13.738Z,5.63
2022-12-24T07:49:40.675Z,5.65
2022-12-24T07:52:07.612Z,6.63
2022-12-24T07:54:34.583Z,5.30
2022-12-24T07:57:01.553Z,5.13
2022-12-24T07:59:28.430Z,5.55
2022-12-24T08:01:55.485Z,3.90
2022-12-24T08:04:22.562Z,4.68
2022-12-24T08:06:49.485Z,5.97
2022-12-24T08:09:16.579Z,5.20
2022-12-24T08:11:51.340Z,5.30
2022-12-24T08:14:18.881Z,4.93
2022-12-24T08:16:45.900Z,6.63
2022-12-24T08:19:12.887Z,5.57
2022-12-24T08:21:39.794Z,4.97
2022-12-24T08:24:06.974Z,5.35
2022-12-24T08:26:33.969Z,5.47
2022-12-24T08:29:01.371Z,5.35
2022-12-24T08:31:28.383Z,4.70
2022-12-24T08:33:55.301Z,5.15
2022-12-24T08:36:22.460Z,6.05
2022-12-24T08:38:49.310Z,5.40
2022-12-24T08:41:16.240Z,3.65
2022-12-24T08:43:43.164Z,6.47
2022-12-24T08:48:38.287Z,4.97
2022-12-24T08:51:12.362Z,4.35
2022-12-24T08:53:39.782Z,4.07
2022-12-24T08:56:08.729Z,9.38
2022-12-24T08:58:35.644Z,8.95
2022-12-24T09:01:09.723Z,14.20
2022-12-24T09:03:36.675Z,11.60
2022-12-24T09:06:05.319Z,12.73
2022-12-24T09:08:32.715Z,10.80
2022-12-24T09:11:17.032Z,11.65
2022-12-24T09:13:44.797Z,9.00
2022-12-24T09:16:12.030Z,9.35
2022-12-24T09:18:39.549Z,9.05
2022-12-24T09:21:09.399Z,8.35
2022-12-24T09:23:39.741Z,7.57
2022-12-24T09:26:21.446Z,7.95
2022-12-24T09:28:48.694Z,7.15
2022-12-24T09:31:16.623Z,6.68
2022-12-24T09:33:45.672Z,8.48
2022-12-24T09:36:12.808Z,5.97
2022-12-24T09:38:42.294Z,6.10
2022-12-24T09:41:34.760Z,6.43
2022-12-24T09:44:08.631Z,6.18
2022-12-24T09:46:37.962Z,7.55
2022-12-24T09:49:15.115Z,5.85
2022-12-24T09:51:52.935Z,8.98
2022-12-24T09:54:24.434Z,7.97
2022-12-24T09:56:51.791Z,6.22
2022-12-24T09:59:23.115Z,11.40
2022-12-24T10:01:53.090Z,11.52
2022-12-24T10:04:23.037Z,9.18
2022-12-24T10:07:26.964Z,8.40
2022-12-24T10:10:03.287Z,8.18
2022-12-24T10:12:35.928Z,9.13
2022-12-24T10:15:27.423Z,7.40
2022-12-24T10:18:45.619Z,9.55
2022-12-24T10:21:28.401Z,8.32
2022-12-24T10:23:56.772Z,6.97
2022-12-24T10:26:45.258Z,8.57
2022-12-24T10:29:23.767Z,7.57
2022-12-24T10:31:54.942Z,6.85
2022-12-24T10:34:24.750Z,9.38
2022-12-24T10:36:51.810Z,12.52
2022-12-24T10:39:24.434Z,11.25
2022-12-24T10:41:57.922Z,9.93
2022-12-24T10:44:28.089Z,14.48
2022-12-24T10:46:55.352Z,8.88
2022-12-24T10:49:44.945Z,11.43
2022-12-24T10:52:14.748Z,9.20
2022-12-24T10:55:11.260Z,7.80
2022-12-24T10:57:39.117Z,8.80
2022-12-24T11:00:07.747Z,9.07
2022-12-24T11:02:39.293Z,8.35
2022-12-24T11:05:26.716Z,6.32
2022-12-24T11:08:03.685Z,9.63
2022-12-24T11:10:31.290Z,8.90
2022-12-24T11:13:27.775Z,8.43
2022-12-24T11:15:45.225Z,7.75
2022-12-24T11:20:50.411Z,9.25
2022-12-24T11:23:17.900Z,6.57
2022-12-24T11:25:49.622Z,9.27
2022-12-24T11:28:28.553Z,9.48
2022-12-24T11:31:03.419Z,9.15
2022-12-24T11:33:31.517Z,8.15
2022-12-24T11:36:02.740Z,8.43
2022-12-24T11:38:30.573Z,8.38
2022-12-24T11:41:04.311Z,7.20
2022-12-24T11:43:52.596Z,7.07
2022-12-24T11:46:41.639Z,7.35
2022-12-24T11:49:27.472Z,7.63
2022-12-24T11:52:00.432Z,8.68
2022-12-24T11:54:30.127Z,8.48
2022-12-24T11:59:44.670Z,7.63
2022-12-24T12:02:34.636Z,6.93
2022-12-24T12:05:08.530Z,8.27
2022-12-24T12:07:37.289Z,6.65
2022-12-24T12:10:18.104Z,6.57
2022-12-24T12:13:22.015Z,8.68
2022-12-24T12:15:53.501Z,7.30
2022-12-24T12:18:27.622Z,6.30
2022-12-24T12:21:05.057Z,6.20
2022-12-24T12:23:38.057Z,6.18
2022-12-24T12:26:15.674Z,8.02
2022-12-24T12:28:55.181Z,6.13
2022-12-24T12:31:32.598Z,6.00
2022-12-24T12:34:19.366Z,6.22
2022-12-24T12:36:49.405Z,7.22
2022-12-24T12:39:16.331Z,6.68
2022-12-24T12:42:22.766Z,5.40
2022-12-24T12:45:16.542Z,6.75
2022-12-24T12:47:46.120Z,5.65
2022-12-24T12:50:37.039Z,7.20
2022-12-24T12:53:30.546Z,6.75
2022-12-24T12:56:06.724Z,7.20
2022-12-24T12:58:51.947Z,5.80
2022-12-24T13:02:06.961Z,7.55
2022-12-24T13:05:15.470Z,5.55
2022-12-24T13:08:07.578Z,6.85
2022-12-24T13:10:46.323Z,6.38
2022-12-24T13:13:35.056Z,7.60
2022-12-24T13:16:16.901Z,5.38
2022-12-24T13:18:58.846Z,6.28
2022-12-24T13:21:28.153Z,6.45
2022-12-24T13:24:16.886Z,5.88
2022-12-24T13:26:44.147Z,6.72
2022-12-24T13:29:31.616Z,6.07
2022-12-24T13:32:33.865Z,5.97
2022-12-24T13:35:01.625Z,7.00
2022-12-24T13:37:31.315Z,5.80
2022-12-24T13:43:01.278Z,8.48
2022-12-24T13:45:31.125Z,6.13
2022-12-24T13:48:11.414Z,5.40
2022-12-24T13:50:52.699Z,7.07
2022-12-24T13:53:37.795Z,5.28
2022-12-24T13:56:07.802Z,6.72
2022-12-24T13:58:37.826Z,7.90
2022-12-24T14:04:05.467Z,7.95
2022-12-24T14:06:41.399Z,8.52
2022-12-24T14:09:13.737Z,10.68
2022-12-24T14:11:59.232Z,7.78
2022-12-24T14:14:31.324Z,9.10
2022-12-24T14:19:59.438Z,12.20
2022-12-24T14:22:30.591Z,9.18
2022-12-24T14:25:01.580Z,11.35
2022-12-24T14:27:42.077Z,12.07
2022-12-24T14:30:26.784Z,9.32
2022-12-24T14:32:54.673Z,11.23
2022-12-24T14:35:38.813Z,13.00
2022-12-24T14:38:08.516Z,10.77
2022-12-24T14:43:32.000Z,9.40
2022-12-24T14:46:22.557Z,12.25
2022-12-24T14:49:08.492Z,13.23
2022-12-24T14:52:37.851Z,11.30
2022-12-24T14:55:36.577Z,8.52
2022-12-24T14:58:25.175Z,12.23
2022-12-24T15:00:54.470Z,11.32
2022-12-24T15:03:24.552Z,11.65
2022-12-24T15:05:56.934Z,10.63
2022-12-24T15:08:31.107Z,10.15
2022-12-24T15:11:02.218Z,12.68
2022-12-24T15:13:37.397Z,10.52
2022-12-24T15:16:08.417Z,11.43
2022-12-24T15:18:39.009Z,10.90
2022-12-24T15:21:08.384Z,8.38
2022-12-24T15:23:37.278Z,11.70
2022-12-24T15:26:09.337Z,7.47
2022-12-24T15:28:38.081Z,8.52
2022-12-24T15:31:10.450Z,6.93
2022-12-24T15:33:38.251Z,7.88
2022-12-24T15:36:07.940Z,14.60
2022-12-24T15:41:14.743Z,19.33
2022-12-24T15:43:41.844Z,16.02
2022-12-24T15:46:08.708Z,22.75
2022-12-24T15:48:38.257Z,20.50
2022-12-24T15:51:05.488Z,18.67
2022-12-24T15:53:40.428Z,18.83
2022-12-24T15:56:13.284Z,18.73
2022-12-24T15:58:42.575Z,15.05
2022-12-24T16:01:09.734Z,17.02
2022-12-24T16:03:39.102Z,15.70
2022-12-24T16:06:11.732Z,14.25
2022-12-24T16:08:40.143Z,14.60
2022-12-24T16:11:19.736Z,15.55
2022-12-24T16:13:55.667Z,14.82
2022-12-24T16:16:32.158Z,14.05
2022-12-24T16:19:00.419Z,13.65
2022-12-24T16:21:39.323Z,14.00
2022-12-24T16:24:15.988Z,16.10
2022-12-24T16:26:42.898Z,13.38
2022-12-24T16:29:11.423Z,15.98
2022-12-24T16:31:56.075Z,14.35
2022-12-24T16:34:25.930Z,12.43
2022-12-24T16:36:53.314Z,16.10
2022-12-24T16:39:23.356Z,11.02
2022-12-24T16:42:13.583Z,10.48
2022-12-24T16:44:41.077Z,13.00
2022-12-24T16:47:33.645Z,16.13
2022-12-24T16:50:05.008Z,20.02
2022-12-24T16:52:33.770Z,20.88
2022-12-24T16:55:01.661Z,23.70
2022-12-24T16:57:29.010Z,22.02
2022-12-24T16:59:56.030Z,20.73
2022-12-24T17:02:24.765Z,20.30
2022-12-24T17:04:52.030Z,20.17
2022-12-24T17:07:21.527Z,20.60
2022-12-24T17:09:48.634Z,18.75
2022-12-24T17:12:15.769Z,21.25
2022-12-24T17:14:42.689Z,20.05
2022-12-24T17:17:21.466Z,15.57
2022-12-24T17:19:48.357Z,20.37
2022-12-24T17:22:15.268Z,15.43
2022-12-24T17:24:42.262Z,16.92
2022-12-24T17:27:09.263Z,14.10
2022-12-24T17:29:36.200Z,15.80
2022-12-24T17:32:03.183Z,15.90
2022-12-24T17:34:30.146Z,17.63
2022-12-24T17:36:57.223Z,16.15
2022-12-24T17:39:27.993Z,15.93
2022-12-24T17:41:55.311Z,18.05
2022-12-24T17:44:22.190Z,16.15
2022-12-24T17:46:50.546Z,13.57
2022-12-24T17:49:17.493Z,18.17
2022-12-24T17:51:45.838Z,15.93
2022-12-24T17:54:13.572Z,16.00
2022-12-24T17:56:40.544Z,16.38
2022-12-24T17:59:07.471Z,16.08
2022-12-24T18:01:34.440Z,15.48
2022-12-24T18:04:03.273Z,12.88
2022-12-24T18:06:30.271Z,11.67
2022-12-24T18:08:57.392Z,12.25
2022-12-24T18:11:27.968Z,24.42
2022-12-24T18:13:56.397Z,22.75
2022-12-24T18:16:31.724Z,28.17
2022-12-24T18:18:59.458Z,29.63
2022-12-24T18:21:29.010Z,38.08
2022-12-24T18:23:56.920Z,41.38
2022-12-24T18:26:26.364Z,43.50
2022-12-24T18:28:54.357Z,48.95
2022-12-24T18:31:21.509Z,43.72
2022-12-24T18:33:49.906Z,47.15
2022-12-24T18:36:18.051Z,43.50
2022-12-24T18:38:45.072Z,43.97
2022-12-24T18:41:17.952Z,42.10
2022-12-24T18:43:44.899Z,39.47
2022-12-24T18:46:16.773Z,40.08
2022-12-24T18:48:44.044Z,41.30
2022-12-24T18:51:11.684Z,37.83
2022-12-24T18:53:38.926Z,35.58
2022-12-24T18:56:17.077Z,33.92
2022-12-24T18:58:44.583Z,33.42
2022-12-24T19:01:15.585Z,32.45
2022-12-24T19:03:43.390Z,31.08
2022-12-24T19:06:10.614Z,31.00
2022-12-24T19:11:25.199Z,27.60
2022-12-24T19:13:53.186Z,29.33
2022-12-24T19:16:20.813Z,29.70
2022-12-24T19:18:48.041Z,30.77
2022-12-24T19:21:15.993Z,31.42
2022-12-24T19:23:43.448Z,31.23
2022-12-24T19:26:11.917Z,30.60
2022-12-24T19:28:38.909Z,32.05
2022-12-24T19:31:08.528Z,31.13
2022-12-24T19:36:12.001Z,27.50
2022-12-24T19:38:39.022Z,27.73
2022-12-24T19:41:13.606Z,27.58
2022-12-24T19:43:43.857Z,26.75
2022-12-24T19:46:14.672Z,26.42
2022-12-24T19:48:42.735Z,25.38
2022-12-24T19:51:11.591Z,25.00
2022-12-24T19:53:38.963Z,25.25
2022-12-24T19:56:06.337Z,24.80
2022-12-24T19:58:33.260Z,23.88
2022-12-24T20:01:15.994Z,23.70
2022-12-24T20:03:44.642Z,25.02
2022-12-24T20:06:12.723Z,24.08
2022-12-24T20:08:40.306Z,24.50
2022-12-24T20:11:08.973Z,24.20
2022-12-24T20:13:37.195Z,24.88
2022-12-24T20:16:06.208Z,25.63
2022-12-24T20:18:33.518Z,26.48
2022-12-24T20:21:06.194Z,26.80
2022-12-24T20:23:34.692Z,30.00
2022-12-24T20:26:04.294Z,30.55
2022-12-24T20:28:32.433Z,33.15
2022-12-24T20:30:59.394Z,34.38
2022-12-24T20:33:26.326Z,34.75
2022-12-24T20:35:53.468Z,35.83
2022-12-24T20:38:20.532Z,39.05
2022-12-24T20:40:47.419Z,39.15
2022-12-24T20:43:14.328Z,38.80
2022-12-24T20:45:42.790Z,39.65
2022-12-24T20:48:09.732Z,42.33
2022-12-24T20:50:40.803Z,41.22
2022-12-24T20:53:07.723Z,49.38
2022-12-24T20:55:35.483Z,48.58
2022-12-24T20:58:02.762Z,47.70
2022-12-24T21:00:29.703Z,50.55
2022-12-24T21:02:56.939Z,58.70
2022-12-24T21:05:24.036Z,53.80
2022-12-24T21:07:51.075Z,65.22
2022-12-24T21:10:18.085Z,66.85
2022-12-24T21:12:52.334Z,84.85
2022-12-24T21:15:21.467Z,84.10
2022-12-24T21:17:49.098Z,92.20
2022-12-24T21:20:17.161Z,102.93
2022-12-24T21:25:12.337Z,103.45
2022-12-24T21:27:39.369Z,108.38
2022-12-24T21:30:08.290Z,100.82
2022-12-24T21:32:38.322Z,103.82
2022-12-24T21:35:05.644Z,117.22
2022-12-24T21:37:32.577Z,103.75
2022-12-24T21:39:59.482Z,107.90
2022-12-24T21:42:26.663Z,105.82
2022-12-24T21:44:53.769Z,103.40
2022-12-24T21:47:20.660Z,100.50
2022-12-24T21:50:06.011Z,98.13
2022-12-24T21:52:33.070Z,97.25
2022-12-24T21:55:00.047Z,93.85
2022-12-24T21:57:45.760Z,90.63
2022-12-24T22:00:22.035Z,85.43
2022-12-24T22:02:54.310Z,83.20
2022-12-24T22:05:21.718Z,81.32
2022-12-24T22:08:07.197Z,77.75
2022-12-24T22:10:52.696Z,72.47
2022-12-24T22:13:20.791Z,69.40
2022-12-24T22:15:51.791Z,91.88
2022-12-24T22:18:21.076Z,82.28
2022-12-24T22:20:48.225Z,79.03
2022-12-24T22:23:15.579Z,75.75
2022-12-24T22:25:43.898Z,74.22
2022-12-24T22:28:10.960Z,70.43
2022-12-24T22:30:42.443Z,68.53
2022-12-24T22:33:10.169Z,65.72
2022-12-24T22:35:40.880Z,63.47
2022-12-24T22:38:09.267Z,63.00
2022-12-24T22:40:38.758Z,60.92
2022-12-24T22:43:05.578Z,59.47
2022-12-24T22:45:32.484Z,57.08
2022-12-24T22:47:59.308Z,54.10
2022-12-24T22:50:26.422Z,54.88
2022-12-24T22:52:53.981Z,52.97
2022-12-24T22:55:21.627Z,49.42
2022-12-24T22:57:48.665Z,48.50
2022-12-24T23:00:38.239Z,47.00
2022-12-24T23:03:05.805Z,46.83
2022-12-24T23:05:33.003Z,45.60
2022-12-24T23:08:00.043Z,47.13
2022-12-24T23:10:27.103Z,44.05
2022-12-24T23:13:15.034Z,42.70
2022-12-24T23:15:42.640Z,42.58
2022-12-24T23:18:10.809Z,42.85
2022-12-24T23:20:43.226Z,39.67
2022-12-24T23:23:10.172Z,39.67
2022-12-24T23:25:37.563Z,42.28
2022-12-24T23:28:04.638Z,39.30
2022-12-24T23:30:31.833Z,37.92
2022-12-24T23:32:58.924Z,37.70
2022-12-24T23:35:25.867Z,36.65
2022-12-24T23:37:52.826Z,37.08
2022-12-24T23:40:19.791Z,34.83
2022-12-24T23:42:46.678Z,36.65
2022-12-24T23:45:13.706Z,34.95
2022-12-24T23:47:40.567Z,35.88
2022-12-24T23:50:08.140Z,32.80
2022-12-24T23:52:35.202Z,35.38
2022-12-24T23:55:02.000Z,33.35
2022-12-24T23:57:28.856Z,34.42
2022-12-24T23:59:55.801Z,35.60
